Time;durP1;ratioP1;P1;durP2;ratioP2;P2;SDS_P1;SDS_P2;PMS_P1;PMS_P2;Temp;Humidity;BMP_temperature;BMP_pressure;BME280_temperature;BME280_humidity;BME280_pressure;Samples;Min_cycle;Max_cycle;Signal;HPM_P1;HPM_P2
2021/06/10 00:00:21;;;;;;;5.40;4.90;;;;;;;;;;10280201;28;20501;-57
2021/06/10 00:05:20;;;;;;;5.88;4.43;;;;;;;;;;10280919;28;20033;-57
2021/06/10 00:10:18;;;;;;;7.07;4.05;;;;;;;;;;10280679;28;20079;-57
2021/06/10 00:15:21;;;;;;;9.70;4.70;;;;;;;;;;10280539;28;20084;-57
2021/06/10 00:20:20;;;;;;;5.85;4.45;;;;;;;;;;10279865;28;20414;-57
2021/06/10 00:25:20;;;;;;;5.53;4.53;;;;;;;;;;10278624;28;20521;-57
2021/06/10 00:30:20;;;;;;;6.03;4.82;;;;;;;;;;10280271;28;20099;-57
2021/06/10 00:35:18;;;;;;;7.15;4.03;;;;;;;;;;10279394;28;20524;-57
2021/06/10 00:40:16;;;;;;;7.45;4.18;;;;;;;;;;10279655;28;20088;-57
2021/06/10 00:45:15;;;;;;;9.07;4.72;;;;;;;;;;10279370;28;20037;-58
2021/06/10 00:50:15;;;;;;;6.50;3.75;;;;;;;;;;10278956;28;20494;-57
2021/06/10 00:55:13;;;;;;;7.43;4.25;;;;;;;;;;10278871;28;20536;-57
2021/06/10 01:00:14;;;;;;;5.07;4.35;;;;;;;;;;10278074;28;20505;-58
2021/06/10 01:05:12;;;;;;;11.07;3.90;;;;;;;;;;10278948;28;20528;-58
2021/06/10 01:10:16;;;;;;;6.85;4.50;;;;;;;;;;10278031;28;20088;-57
2021/06/10 01:15:15;;;;;;;7.32;4.43;;;;;;;;;;10278045;28;20448;-57
2021/06/10 01:20:14;;;;;;;9.65;4.55;;;;;;;;;;10277827;28;20083;-57
2021/06/10 01:25:16;;;;;;;6.50;3.72;;;;;;;;;;10277587;28;20049;-57
2021/06/10 01:30:16;;;;;;;7.10;3.83;;;;;;;;;;10277625;28;20081;-57
2021/06/10 01:35:15;;;;;;;4.57;3.83;;;;;;;;;;10277816;28;20413;-58
2021/06/10 01:40:13;;;;;;;5.32;3.40;;;;;;;;;;10276990;28;20099;-57
2021/06/10 01:45:12;;;;;;;5.18;3.72;;;;;;;;;;10276552;28;20040;-56
2021/06/10 01:50:13;;;;;;;6.82;4.10;;;;;;;;;;10276817;28;20080;-55
2021/06/10 01:55:12;;;;;;;3.22;2.88;;;;;;;;;;10277204;28;20077;-56
2021/06/10 02:00:11;;;;;;;4.65;3.55;;;;;;;;;;10276391;28;20044;-57
2021/06/10 02:05:10;;;;;;;3.63;3.20;;;;;;;;;;10274281;28;20087;-58
2021/06/10 02:10:11;;;;;;;4.13;3.42;;;;;;;;;;10277300;28;20088;-56
2021/06/10 02:15:10;;;;;;;4.18;3.75;;;;;;;;;;10275664;28;20061;-59
2021/06/10 02:20:08;;;;;;;6.65;5.47;;;;;;;;;;10276141;28;20418;-57
2021/06/10 02:25:07;;;;;;;8.50;5.60;;;;;;;;;;10274883;28;20056;-57
2021/06/10 02:30:07;;;;;;;6.78;4.53;;;;;;;;;;10275502;28;20083;-57
2021/06/10 02:35:06;;;;;;;5.05;3.70;;;;;;;;;;10275809;28;20045;-56
2021/06/10 02:40:05;;;;;;;6.43;4.55;;;;;;;;;;10275888;28;20045;-56
2021/06/10 02:45:04;;;;;;;12.32;4.15;;;;;;;;;;10275284;28;20041;-57
2021/06/10 02:50:04;;;;;;;10.90;4.63;;;;;;;;;;10274213;28;20045;-57
2021/06/10 02:55:02;;;;;;;5.70;4.57;;;;;;;;;;10275044;28;20071;-57
2021/06/10 03:00:01;;;;;;;8.35;4.93;;;;;;;;;;10282427;28;20045;-56
2021/06/10 03:04:59;;;;;;;8.45;5.10;;;;;;;;;;10306990;28;20278;-57
2021/06/10 03:09:58;;;;;;;5.93;4.53;;;;;;;;;;10294742;28;20095;-57
2021/06/10 03:14:56;;;;;;;8.55;4.93;;;;;;;;;;10299325;28;20081;-57
2021/06/10 03:19:55;;;;;;;7.55;5.28;;;;;;;;;;10304009;28;20485;-58
2021/06/10 03:24:53;;;;;;;15.30;5.95;;;;;;;;;;10296559;28;20077;-58
2021/06/10 03:29:52;;;;;;;18.13;16.23;;;;;;;;;;10291483;28;20072;-55
2021/06/10 03:34:50;;;;;;;8.25;5.35;;;;;;;;;;10299466;28;20540;-58
2021/06/10 03:39:49;;;;;;;5.38;4.78;;;;;;;;;;10294785;28;20068;-56
2021/06/10 03:44:47;;;;;;;7.50;4.93;;;;;;;;;;10316984;28;20055;-57
2021/06/10 03:49:46;;;;;;;6.72;5.07;;;;;;;;;;10319510;28;20080;-57
2021/06/10 03:54:44;;;;;;;10.65;5.72;;;;;;;;;;10319024;28;20048;-57
2021/06/10 03:59:41;;;;;;;8.73;6.15;;;;;;;;;;10319905;28;20048;-57
2021/06/10 04:04:39;;;;;;;6.63;5.00;;;;;;;;;;10320689;28;20076;-58
2021/06/10 04:09:38;;;;;;;8.65;5.55;;;;;;;;;;10319673;28;20072;-57
2021/06/10 04:14:36;;;;;;;6.35;5.30;;;;;;;;;;10320559;28;20064;-56
2021/06/10 04:19:34;;;;;;;15.95;7.38;;;;;;;;;;10320385;28;20045;-57
2021/06/10 04:24:32;;;;;;;7.63;5.55;;;;;;;;;;10320696;28;20040;-57
2021/06/10 04:29:31;;;;;;;9.00;6.88;;;;;;;;;;10317881;28;20048;-57
2021/06/10 04:34:29;;;;;;;9.20;6.70;;;;;;;;;;10319601;28;20051;-57
2021/06/10 04:39:27;;;;;;;10.68;6.03;;;;;;;;;;10319773;28;20049;-57
2021/06/10 04:44:25;;;;;;;9.45;7.03;;;;;;;;;;10317433;28;20075;-57
2021/06/10 04:49:24;;;;;;;11.65;6.65;;;;;;;;;;10316735;28;20090;-57
2021/06/10 04:54:22;;;;;;;65.60;40.03;;;;;;;;;;10316779;28;20075;-58
2021/06/10 04:59:19;;;;;;;12.18;7.85;;;;;;;;;;10317482;28;20080;-57
2021/06/10 05:04:17;;;;;;;19.67;17.67;;;;;;;;;;10316847;28;20496;-55
2021/06/10 05:09:17;;;;;;;8.38;6.30;;;;;;;;;;10318276;28;20080;-57
2021/06/10 05:14:16;;;;;;;7.03;5.38;;;;;;;;;;10311663;28;20087;-56
2021/06/10 05:19:13;;;;;;;5.45;4.85;;;;;;;;;;10299774;28;20055;-57
2021/06/10 05:24:13;;;;;;;11.02;6.90;;;;;;;;;;10317837;28;20048;-56
2021/06/10 05:29:12;;;;;;;6.30;5.30;;;;;;;;;;10316332;28;20076;-57
2021/06/10 05:34:10;;;;;;;9.00;6.68;;;;;;;;;;10316005;28;20535;-56
2021/06/10 05:39:08;;;;;;;8.55;5.60;;;;;;;;;;10317033;28;20053;-57
2021/06/10 05:44:06;;;;;;;8.27;5.75;;;;;;;;;;10316055;28;20103;-57
2021/06/10 05:49:05;;;;;;;6.88;5.90;;;;;;;;;;10316607;28;20072;-58
2021/06/10 05:54:03;;;;;;;12.93;5.25;;;;;;;;;;10316583;28;20493;-55
2021/06/10 05:59:01;;;;;;;14.50;9.40;;;;;;;;;;10316112;28;20068;-57
2021/06/10 06:03:59;;;;;;;39.15;30.88;;;;;;;;;;10315096;28;20044;-56
2021/06/10 06:08:58;;;;;;;9.95;5.75;;;;;;;;;;10315894;28;20076;-57
2021/06/10 06:14:06;;;;;;;8.48;6.38;;;;;;;;;;10315869;28;20052;-56
2021/06/10 06:19:05;;;;;;;5.55;5.05;;;;;;;;;;10316051;28;20044;-56
2021/06/10 06:24:05;;;;;;;6.75;6.03;;;;;;;;;;10316348;28;20040;-57
2021/06/10 06:29:03;;;;;;;6.97;5.53;;;;;;;;;;10315371;28;20080;-57
2021/06/10 06:34:01;;;;;;;9.25;6.07;;;;;;;;;;10314813;28;20052;-56
2021/06/10 06:38:59;;;;;;;7.57;5.80;;;;;;;;;;10310911;28;21115;-55
2021/06/10 06:43:58;;;;;;;8.73;7.30;;;;;;;;;;10292970;28;20095;-57
2021/06/10 06:48:56;;;;;;;7.45;6.72;;;;;;;;;;10284546;28;20076;-57
2021/06/10 06:53:54;;;;;;;9.85;5.60;;;;;;;;;;10274461;28;20048;-57
2021/06/10 06:58:53;;;;;;;10.38;6.35;;;;;;;;;;10274227;28;20045;-58
2021/06/10 07:03:52;;;;;;;10.35;6.43;;;;;;;;;;10274073;28;20077;-57
2021/06/10 07:08:50;;;;;;;12.77;6.47;;;;;;;;;;10292052;28;20079;-56
2021/06/10 07:14:02;;;;;;;10.10;6.97;;;;;;;;;;10293389;28;20060;-56
2021/06/10 07:19:01;;;;;;;11.43;6.80;;;;;;;;;;10293327;28;20067;-55
2021/06/10 07:23:59;;;;;;;9.07;7.28;;;;;;;;;;10293034;28;20450;-54
2021/06/10 07:28:57;;;;;;;14.35;6.78;;;;;;;;;;10298869;28;20064;-55
2021/06/10 07:33:54;;;;;;;9.60;6.65;;;;;;;;;;10303441;28;20044;-56
2021/06/10 07:38:54;;;;;;;13.25;8.77;;;;;;;;;;10298794;28;20064;-56
2021/06/10 07:43:51;;;;;;;12.30;6.25;;;;;;;;;;10316452;28;20436;-54
2021/06/10 07:48:49;;;;;;;10.13;5.80;;;;;;;;;;10321188;28;20099;-57
2021/06/10 07:53:48;;;;;;;11.40;6.32;;;;;;;;;;10321288;28;20068;-57
2021/06/10 07:58:47;;;;;;;9.50;5.95;;;;;;;;;;10319926;28;20090;-56
2021/06/10 08:03:46;;;;;;;10.90;4.68;;;;;;;;;;10320959;28;20476;-56
2021/06/10 08:08:43;;;;;;;8.02;5.22;;;;;;;;;;10320882;28;20623;-56
2021/06/10 08:13:41;;;;;;;8.40;4.72;;;;;;;;;;10320699;28;20412;-58
2021/06/10 08:18:40;;;;;;;7.78;6.20;;;;;;;;;;10320628;28;20056;-57
2021/06/10 08:23:38;;;;;;;6.18;4.65;;;;;;;;;;10320384;28;20040;-50
2021/06/10 08:28:36;;;;;;;10.02;5.00;;;;;;;;;;10319873;28;20096;-57
2021/06/10 08:33:35;;;;;;;6.40;5.78;;;;;;;;;;10319769;28;20519;-58
2021/06/10 08:38:34;;;;;;;6.60;4.32;;;;;;;;;;10319889;28;20072;-56
2021/06/10 08:43:32;;;;;;;6.78;5.45;;;;;;;;;;10319092;28;20047;-56
2021/06/10 08:48:31;;;;;;;8.90;6.50;;;;;;;;;;10319156;28;20095;-59
2021/06/10 08:53:29;;;;;;;5.50;4.57;;;;;;;;;;10318803;28;20071;-58
2021/06/10 08:58:28;;;;;;;9.15;5.05;;;;;;;;;;10318309;28;20060;-58
2021/06/10 09:03:29;;;;;;;8.10;5.32;;;;;;;;;;10318673;28;20362;-51
2021/06/10 09:08:27;;;;;;;9.48;5.82;;;;;;;;;;10318293;28;20087;-58
2021/06/10 09:13:35;;;;;;;7.53;5.85;;;;;;;;;;10318631;28;20347;-58
2021/06/10 09:18:34;;;;;;;13.40;5.45;;;;;;;;;;10317813;28;20076;-58
2021/06/10 09:23:32;;;;;;;6.53;5.07;;;;;;;;;;10317848;28;20080;-58
2021/06/10 09:28:31;;;;;;;11.70;9.77;;;;;;;;;;10317146;28;20088;-57
2021/06/10 09:33:38;;;;;;;7.28;6.00;;;;;;;;;;10315951;28;20083;-57
2021/06/10 09:38:38;;;;;;;7.03;4.72;;;;;;;;;;10312744;28;20074;-57
2021/06/10 09:43:42;;;;;;;12.68;4.57;;;;;;;;;;10314658;28;20277;-57
2021/06/10 09:48:40;;;;;;;12.18;4.53;;;;;;;;;;10316725;28;20092;-57
2021/06/10 09:53:39;;;;;;;5.45;4.13;;;;;;;;;;10313729;28;20072;-55
2021/06/10 09:58:39;;;;;;;6.57;4.20;;;;;;;;;;10314721;28;20083;-59
2021/06/10 10:03:44;;;;;;;9.23;4.80;;;;;;;;;;10312141;28;20091;-58
2021/06/10 10:08:45;;;;;;;7.43;4.03;;;;;;;;;;10311661;28;20536;-57
2021/06/10 10:13:44;;;;;;;7.68;4.25;;;;;;;;;;10311322;28;20076;-58
2021/06/10 10:18:43;;;;;;;5.38;4.40;;;;;;;;;;10314810;28;20142;-58
2021/06/10 10:23:41;;;;;;;5.22;4.38;;;;;;;;;;10315680;28;20468;-54
2021/06/10 10:28:41;;;;;;;6.32;4.25;;;;;;;;;;10313955;28;20080;-57
2021/06/10 10:33:43;;;;;;;8.15;4.30;;;;;;;;;;10314454;28;20048;-59
2021/06/10 10:38:41;;;;;;;10.13;4.10;;;;;;;;;;10315289;28;20044;-58
2021/06/10 10:43:40;;;;;;;6.47;4.30;;;;;;;;;;10315048;28;20486;-57
2021/06/10 10:48:39;;;;;;;4.32;3.92;;;;;;;;;;10314971;28;20090;-56
2021/06/10 10:53:43;;;;;;;4.10;3.70;;;;;;;;;;10314773;28;20052;-55
2021/06/10 10:59:02;;;;;;;6.68;4.22;;;;;;;;;;10315261;28;20052;-56
2021/06/10 11:04:00;;;;;;;16.08;13.82;;;;;;;;;;10315020;28;20068;-57
2021/06/10 11:08:58;;;;;;;7.30;4.20;;;;;;;;;;10315055;28;20094;-56
2021/06/10 11:13:57;;;;;;;6.00;4.00;;;;;;;;;;10314925;28;20040;-57
2021/06/10 11:18:57;;;;;;;8.20;4.20;;;;;;;;;;10317766;28;20461;-56
2021/06/10 11:24:13;;;;;;;8.05;5.03;;;;;;;;;;10322414;28;20049;-58
2021/06/10 11:29:14;;;;;;;7.55;4.20;;;;;;;;;;10319198;28;20099;-56
2021/06/10 11:34:30;;;;;;;7.68;4.07;;;;;;;;;;10318195;28;20091;-58
2021/06/10 11:39:31;;;;;;;6.40;4.43;;;;;;;;;;10316956;28;20087;-59
2021/06/10 11:44:30;;;;;;;4.78;3.75;;;;;;;;;;10320167;28;20072;-57
2021/06/10 11:49:32;;;;;;;8.05;4.15;;;;;;;;;;10321359;28;20490;-58
2021/06/10 11:54:29;;;;;;;6.65;3.50;;;;;;;;;;10320346;28;20047;-58
2021/06/10 11:59:29;;;;;;;8.95;4.03;;;;;;;;;;10321043;28;20041;-58
2021/06/10 12:04:28;;;;;;;4.72;3.53;;;;;;;;;;10320049;28;20543;-57
2021/06/10 12:09:26;;;;;;;7.25;4.60;;;;;;;;;;10320720;28;20080;-58
2021/06/10 12:14:35;;;;;;;7.35;4.05;;;;;;;;;;10320437;28;20049;-57
2021/06/10 12:19:35;;;;;;;8.05;4.68;;;;;;;;;;10320519;28;20535;-58
2021/06/10 12:24:39;;;;;;;7.53;4.80;;;;;;;;;;10320448;28;20051;-58
2021/06/10 12:29:47;;;;;;;8.32;4.10;;;;;;;;;;10317587;28;20099;-58
2021/06/10 12:34:53;;;;;;;4.13;3.72;;;;;;;;;;10318645;28;20055;-57
2021/06/10 12:39:51;;;;;;;8.30;4.38;;;;;;;;;;10319146;28;20076;-59
2021/06/10 12:44:49;;;;;;;7.03;3.38;;;;;;;;;;10318343;28;20032;-60
2021/06/10 12:49:48;;;;;;;11.95;4.47;;;;;;;;;;10318619;28;20076;-58
2021/06/10 12:54:57;;;;;;;16.10;4.78;;;;;;;;;;10319063;28;20087;-59
2021/06/10 12:59:57;;;;;;;10.00;3.95;;;;;;;;;;10317807;28;20057;-56
2021/06/10 13:04:56;;;;;;;6.35;3.97;;;;;;;;;;10317657;28;20075;-57
2021/06/10 13:09:56;;;;;;;6.63;4.32;;;;;;;;;;10317930;28;20079;-56
2021/06/10 13:15:01;;;;;;;8.45;5.30;;;;;;;;;;10317319;28;20088;-58
2021/06/10 13:19:59;;;;;;;11.23;5.10;;;;;;;;;;10316737;28;20072;-57
2021/06/10 13:25:05;;;;;;;10.60;5.82;;;;;;;;;;10317272;28;20084;-57
2021/06/10 13:30:04;;;;;;;13.55;5.97;;;;;;;;;;10315320;28;20088;-58
2021/06/10 13:35:09;;;;;;;8.23;4.72;;;;;;;;;;10316807;28;20429;-57
2021/06/10 13:40:09;;;;;;;8.90;4.63;;;;;;;;;;10317288;28;20045;-58
2021/06/10 13:45:07;;;;;;;8.85;4.25;;;;;;;;;;10316623;28;20056;-58
2021/06/10 13:50:05;;;;;;;7.75;5.70;;;;;;;;;;10316431;28;20540;-57
2021/06/10 13:55:04;;;;;;;5.70;5.10;;;;;;;;;;10316898;28;20056;-57
2021/06/10 14:00:04;;;;;;;16.65;11.70;;;;;;;;;;10316474;28;20045;-58
2021/06/10 14:05:06;;;;;;;5.72;4.47;;;;;;;;;;10327540;28;20406;-58
2021/06/10 14:10:04;;;;;;;5.03;3.70;;;;;;;;;;10315278;28;20082;-56
2021/06/10 14:15:05;;;;;;;9.90;4.25;;;;;;;;;;10315084;28;20535;-58
2021/06/10 14:20:03;;;;;;;7.72;3.95;;;;;;;;;;10314937;28;20059;-57
2021/06/10 14:25:01;;;;;;;6.32;4.57;;;;;;;;;;10314930;28;20048;-58
2021/06/10 14:30:12;;;;;;;4.90;4.38;;;;;;;;;;10314991;28;20068;-57
2021/06/10 14:35:12;;;;;;;11.18;5.68;;;;;;;;;;10314546;28;20076;-58
2021/06/10 14:40:11;;;;;;;3.80;3.47;;;;;;;;;;10315113;28;20040;-58
2021/06/10 14:45:09;;;;;;;15.43;8.45;;;;;;;;;;10314367;28;20087;-58
2021/06/10 14:50:07;;;;;;;6.05;4.07;;;;;;;;;;10314939;28;20087;-58
2021/06/10 14:55:08;;;;;;;8.48;3.92;;;;;;;;;;10320776;28;20048;-58
2021/06/10 15:00:08;;;;;;;8.50;4.25;;;;;;;;;;10322688;28;20052;-58
2021/06/10 15:05:06;;;;;;;7.68;4.72;;;;;;;;;;10322334;28;20088;-58
2021/06/10 15:10:04;;;;;;;4.85;3.03;;;;;;;;;;10322302;28;20498;-57
2021/06/10 15:15:04;;;;;;;8.80;4.38;;;;;;;;;;10322060;28;20067;-58
2021/06/10 15:20:02;;;;;;;6.57;3.63;;;;;;;;;;10323073;28;20071;-58
2021/06/10 15:25:00;;;;;;;5.80;3.88;;;;;;;;;;10321664;28;20040;-59
2021/06/10 15:29:58;;;;;;;3.40;2.90;;;;;;;;;;10321835;28;20051;-58
2021/06/10 15:34:57;;;;;;;5.78;2.70;;;;;;;;;;10321250;28;20037;-59
2021/06/10 15:39:58;;;;;;;10.27;5.95;;;;;;;;;;10321333;28;20555;-58
2021/06/10 15:44:56;;;;;;;10.20;5.53;;;;;;;;;;10314124;28;20036;-58
2021/06/10 15:49:54;;;;;;;6.60;4.70;;;;;;;;;;10302500;28;20068;-59
2021/06/10 15:54:55;;;;;;;5.55;4.68;;;;;;;;;;10288371;28;20045;-59
2021/06/10 15:59:53;;;;;;;8.00;4.53;;;;;;;;;;10285791;28;20063;-59
2021/06/10 16:04:51;;;;;;;6.28;3.78;;;;;;;;;;10285173;28;20049;-57
2021/06/10 16:09:49;;;;;;;10.98;7.25;;;;;;;;;;10299074;28;20083;-59
2021/06/10 16:14:48;;;;;;;7.25;5.03;;;;;;;;;;10294084;28;20091;-57
2021/06/10 16:19:46;;;;;;;6.80;3.47;;;;;;;;;;10280584;28;20080;-57
2021/06/10 16:24:44;;;;;;;6.57;5.25;;;;;;;;;;10280463;28;20522;-57
2021/06/10 16:29:42;;;;;;;11.32;5.97;;;;;;;;;;10283791;28;20068;-58
2021/06/10 16:34:41;;;;;;;8.60;4.68;;;;;;;;;;10315450;28;20072;-57
2021/06/10 16:39:39;;;;;;;12.07;7.13;;;;;;;;;;10321736;28;20045;-58
2021/06/10 16:44:37;;;;;;;5.07;4.55;;;;;;;;;;10320341;28;20468;-58
2021/06/10 16:49:37;;;;;;;6.00;3.55;;;;;;;;;;10320839;28;20056;-59
2021/06/10 16:54:37;;;;;;;9.88;5.18;;;;;;;;;;10320840;28;20080;-58
2021/06/10 16:59:35;;;;;;;7.93;4.80;;;;;;;;;;10319570;28;20531;-59
2021/06/10 17:04:33;;;;;;;7.53;5.55;;;;;;;;;;10303197;28;20471;-55
2021/06/10 17:09:31;;;;;;;9.88;6.78;;;;;;;;;;10282631;28;20072;-58
2021/06/10 17:14:30;;;;;;;7.53;4.60;;;;;;;;;;10295894;28;20092;-58
2021/06/10 17:19:28;;;;;;;8.70;4.40;;;;;;;;;;10310898;28;20049;-57
2021/06/10 17:24:26;;;;;;;7.78;5.30;;;;;;;;;;10305802;28;20072;-57
2021/06/10 17:29:24;;;;;;;7.55;4.72;;;;;;;;;;10307983;28;20049;-58
2021/06/10 17:34:23;;;;;;;4.85;3.78;;;;;;;;;;10277871;28;20091;-58
2021/06/10 17:39:21;;;;;;;4.03;3.58;;;;;;;;;;10278530;28;20056;-58
2021/06/10 17:44:19;;;;;;;7.93;3.97;;;;;;;;;;10278021;28;20067;-58
2021/06/10 17:49:17;;;;;;;8.90;4.18;;;;;;;;;;10277286;28;20110;-58
2021/06/10 17:54:16;;;;;;;5.35;3.53;;;;;;;;;;10276133;28;20426;-58
2021/06/10 17:59:14;;;;;;;5.70;5.10;;;;;;;;;;10277364;28;20056;-59
2021/06/10 18:04:12;;;;;;;9.52;4.28;;;;;;;;;;10286094;28;20083;-58
2021/06/10 18:09:10;;;;;;;5.65;4.70;;;;;;;;;;10295952;28;20076;-58
2021/06/10 18:14:09;;;;;;;4.70;4.28;;;;;;;;;;10316875;28;20076;-59
2021/06/10 18:19:07;;;;;;;10.50;5.65;;;;;;;;;;10277573;28;20053;-58
2021/06/10 18:24:06;;;;;;;6.57;4.30;;;;;;;;;;10301262;28;20045;-58
2021/06/10 18:29:04;;;;;;;8.65;4.35;;;;;;;;;;10277839;28;20087;-58
2021/06/10 18:34:03;;;;;;;6.25;4.25;;;;;;;;;;10276724;28;20049;-56
2021/06/10 18:39:05;;;;;;;7.53;4.50;;;;;;;;;;10276710;28;20052;-58
2021/06/10 18:44:04;;;;;;;9.32;4.72;;;;;;;;;;10286177;28;20074;-57
2021/06/10 18:49:04;;;;;;;10.05;4.22;;;;;;;;;;10305814;28;20040;-58
2021/06/10 18:54:02;;;;;;;12.90;5.43;;;;;;;;;;10287305;28;20477;-55
2021/06/10 18:58:59;;;;;;;11.35;5.07;;;;;;;;;;10275297;28;20056;-57
2021/06/10 19:03:57;;;;;;;9.40;5.53;;;;;;;;;;10276276;28;20037;-57
2021/06/10 19:08:56;;;;;;;7.30;5.22;;;;;;;;;;10290007;28;20068;-58
2021/06/10 19:13:54;;;;;;;11.73;5.60;;;;;;;;;;10314150;28;20084;-58
2021/06/10 19:18:54;;;;;;;11.20;5.22;;;;;;;;;;10275995;28;20502;-58
2021/06/10 19:23:52;;;;;;;10.85;5.72;;;;;;;;;;10275416;28;20076;-57
2021/06/10 19:28:51;;;;;;;10.55;6.82;;;;;;;;;;10308282;28;20045;-58
2021/06/10 19:33:56;;;;;;;9.77;5.43;;;;;;;;;;10275335;28;20079;-57
2021/06/10 19:38:56;;;;;;;9.90;5.53;;;;;;;;;;10275003;28;20045;-58
2021/06/10 19:43:55;;;;;;;9.60;5.85;;;;;;;;;;10285595;28;20485;-57
2021/06/10 19:48:53;;;;;;;13.23;6.25;;;;;;;;;;10323177;28;20059;-58
2021/06/10 19:53:51;;;;;;;7.43;5.38;;;;;;;;;;10300199;28;20072;-58
2021/06/10 19:58:48;;;;;;;13.30;7.20;;;;;;;;;;10284667;28;20501;-59
2021/06/10 20:03:48;;;;;;;6.53;5.05;;;;;;;;;;10298398;28;20080;-58
2021/06/10 20:08:46;;;;;;;7.22;5.57;;;;;;;;;;10290417;28;20065;-58
2021/06/10 20:13:44;;;;;;;5.78;4.97;;;;;;;;;;10316645;28;20074;-58
2021/06/10 20:18:42;;;;;;;8.65;4.78;;;;;;;;;;10301793;28;20080;-56
2021/06/10 20:23:41;;;;;;;7.93;4.22;;;;;;;;;;10289035;28;20080;-57
2021/06/10 20:33:56;;;;;;;7.85;5.05;;;;;;;;;;10292330;28;20076;-58
2021/06/10 20:38:56;;;;;;;6.75;5.30;;;;;;;;;;10294278;28;20068;-59
2021/06/10 20:43:54;;;;;;;8.55;5.53;;;;;;;;;;10280105;28;20080;-54
2021/06/10 20:48:51;;;;;;;12.07;5.60;;;;;;;;;;10279850;28;20053;-57
2021/06/10 20:53:49;;;;;;;6.90;4.95;;;;;;;;;;10289284;28;20518;-57
2021/06/10 20:58:49;;;;;;;11.25;5.30;;;;;;;;;;10279791;28;20080;-59
2021/06/10 21:03:46;;;;;;;8.32;5.22;;;;;;;;;;10291169;28;20469;-56
2021/06/10 21:08:44;;;;;;;10.55;5.72;;;;;;;;;;10279513;28;20045;-56
2021/06/10 21:13:43;;;;;;;6.50;4.32;;;;;;;;;;10276923;28;20441;-58
2021/06/10 21:18:42;;;;;;;12.25;6.10;;;;;;;;;;10279627;28;20612;-58
2021/06/10 21:23:40;;;;;;;7.22;5.30;;;;;;;;;;10278718;28;20045;-58
2021/06/10 21:28:38;;;;;;;10.48;5.50;;;;;;;;;;10278341;28;20045;-59
2021/06/10 21:33:36;;;;;;;6.45;5.43;;;;;;;;;;10278661;28;20099;-58
2021/06/10 21:38:35;;;;;;;9.52;6.18;;;;;;;;;;10278261;28;20049;-59
2021/06/10 21:43:33;;;;;;;9.23;6.00;;;;;;;;;;10277157;28;20525;-57
2021/06/10 21:48:31;;;;;;;7.60;6.07;;;;;;;;;;10277867;28;20044;-56
2021/06/10 21:53:29;;;;;;;7.70;6.47;;;;;;;;;;10277844;28;20525;-56
2021/06/10 21:58:28;;;;;;;9.13;5.95;;;;;;;;;;10276768;28;20045;-58
2021/06/10 22:03:26;;;;;;;8.07;6.60;;;;;;;;;;10277310;28;20053;-57
2021/06/10 22:08:24;;;;;;;13.23;7.13;;;;;;;;;;10277100;28;20410;-58
2021/06/10 22:13:21;;;;;;;9.30;8.38;;;;;;;;;;10276139;28;20076;-58
2021/06/10 22:18:21;;;;;;;9.07;8.05;;;;;;;;;;10277067;28;20088;-59
2021/06/10 22:23:19;;;;;;;9.73;8.65;;;;;;;;;;10275553;28;20080;-58
2021/06/10 22:28:17;;;;;;;12.35;8.07;;;;;;;;;;10275967;28;20077;-58
2021/06/10 22:33:17;;;;;;;12.50;7.93;;;;;;;;;;10276656;28;20481;-58
2021/06/10 22:38:17;;;;;;;16.30;8.00;;;;;;;;;;10276322;28;20052;-55
2021/06/10 22:43:15;;;;;;;8.95;7.47;;;;;;;;;;10276227;28;20041;-58
2021/06/10 22:48:13;;;;;;;8.93;8.10;;;;;;;;;;10275752;28;20092;-58
2021/06/10 22:53:11;;;;;;;9.95;8.13;;;;;;;;;;10275904;28;20081;-59
2021/06/10 22:58:11;;;;;;;13.63;8.15;;;;;;;;;;10275925;28;20052;-58
2021/06/10 23:03:08;;;;;;;8.00;7.25;;;;;;;;;;10275971;28;20784;-58
2021/06/10 23:08:06;;;;;;;10.07;7.20;;;;;;;;;;10273872;28;20049;-56
2021/06/10 23:13:04;;;;;;;13.43;7.07;;;;;;;;;;10274273;28;20095;-57
2021/06/10 23:18:04;;;;;;;8.98;7.90;;;;;;;;;;10283967;28;20061;-56
2021/06/10 23:23:02;;;;;;;7.60;6.90;;;;;;;;;;10283571;28;20076;-56
2021/06/10 23:28:00;;;;;;;12.80;7.35;;;;;;;;;;10283092;28;20155;-57
2021/06/10 23:32:58;;;;;;;8.57;6.43;;;;;;;;;;10283134;28;20087;-58
2021/06/10 23:37:57;;;;;;;7.15;6.20;;;;;;;;;;10281848;28;20041;-62
2021/06/10 23:42:55;;;;;;;9.88;6.40;;;;;;;;;;10282359;28;20536;-63
2021/06/10 23:47:53;;;;;;;8.10;6.25;;;;;;;;;;10282988;28;20077;-64
2021/06/10 23:52:52;;;;;;;8.95;5.50;;;;;;;;;;10281715;28;20076;-64
2021/06/10 23:57:51;;;;;;;8.60;5.45;;;;;;;;;;10282013;28;20055;-63
